createdAt,value
2023-08-26T00:02:16.072Z,98920.63
2023-08-26T00:04:43.017Z,98915.66
2023-08-26T00:07:09.855Z,98907.50
2023-08-26T00:09:36.746Z,98912.69
2023-08-26T00:12:04.180Z,98900.66
2023-08-26T00:14:31.037Z,98904.84
2023-08-26T00:16:58.167Z,98905.94
2023-08-26T00:19:25.753Z,98908.97
2023-08-26T00:21:52.698Z,98904.44
2023-08-26T00:24:20.097Z,98899.31
2023-08-26T00:26:47.028Z,98900.63
2023-08-26T00:29:13.936Z,98909.91
2023-08-26T00:31:41.232Z,98903.03
2023-08-26T00:34:08.278Z,98904.72
2023-08-26T00:36:35.302Z,98893.25
2023-08-26T00:39:02.415Z,98892.56
2023-08-26T00:41:30.197Z,98891.47
2023-08-26T00:43:57.199Z,98891.19
2023-08-26T00:46:24.260Z,98884.34
2023-08-26T00:48:51.453Z,98894.72
2023-08-26T00:51:18.664Z,98888.22
2023-08-26T00:53:47.562Z,98890.94
2023-08-26T00:56:15.276Z,98898.28
2023-08-26T00:58:43.194Z,98890.56
2023-08-26T01:01:10.276Z,98892.91
2023-08-26T01:03:39.417Z,98892.91
2023-08-26T01:06:06.807Z,98892.56
2023-08-26T01:08:34.304Z,98894.53
2023-08-26T01:11:12.997Z,98884.22
2023-08-26T01:14:18.925Z,98883.84
2023-08-26T01:16:45.897Z,98881.94
2023-08-26T01:19:31.600Z,98882.72
2023-08-26T01:22:03.062Z,98881.22
2023-08-26T01:24:32.696Z,98875.09
2023-08-26T01:27:00.076Z,98877.78
2023-08-26T01:29:27.140Z,98880.50
2023-08-26T01:32:05.494Z,98873.22
2023-08-26T01:34:35.279Z,98872.06
2023-08-26T01:37:04.341Z,98877.78
2023-08-26T01:39:32.228Z,98872.41
2023-08-26T01:42:01.716Z,98867.03
2023-08-26T01:44:30.469Z,98871.25
2023-08-26T01:46:58.209Z,98874.31
2023-08-26T01:49:25.172Z,98866.28
2023-08-26T01:51:52.681Z,98866.66
2023-08-26T01:54:19.606Z,98870.91
2023-08-26T01:56:48.415Z,98865.94
2023-08-26T01:59:15.306Z,98870.94
2023-08-26T02:01:42.295Z,98858.66
2023-08-26T02:04:09.314Z,98850.25
2023-08-26T02:06:37.943Z,98853.31
2023-08-26T02:09:04.843Z,98851.78
2023-08-26T02:11:31.839Z,98851.78
2023-08-26T02:13:59.335Z,98843.00
2023-08-26T02:16:26.204Z,98844.91
2023-08-26T02:18:53.070Z,98843.00
2023-08-26T02:21:20.073Z,98842.25
2023-08-26T02:23:47.129Z,98840.69
2023-08-26T02:26:16.437Z,98842.25
2023-08-26T02:28:43.876Z,98841.06
2023-08-26T02:31:10.937Z,98838.38
2023-08-26T02:33:38.000Z,98834.94
2023-08-26T02:36:05.604Z,98834.19
2023-08-26T02:38:32.586Z,98837.25
2023-08-26T02:41:01.213Z,98845.31
2023-08-26T02:43:28.191Z,98839.19
2023-08-26T02:45:56.860Z,98830.78
2023-08-26T02:48:24.381Z,98832.66
2023-08-26T02:51:02.435Z,98837.66
2023-08-26T02:53:31.266Z,98832.69
2023-08-26T02:55:58.391Z,98828.09
2023-08-26T02:58:25.959Z,98834.97
2023-08-26T03:00:54.089Z,98831.53
2023-08-26T03:03:21.066Z,98833.84
2023-08-26T03:05:48.360Z,98828.88
2023-08-26T03:08:15.324Z,98834.22
2023-08-26T03:10:42.217Z,98832.28
2023-08-26T03:13:09.137Z,98828.09
2023-08-26T03:15:36.105Z,98828.09
2023-08-26T03:18:03.267Z,98837.66
2023-08-26T03:20:30.362Z,98836.50
2023-08-26T03:22:57.326Z,98829.63
2023-08-26T03:25:24.229Z,98830.38
2023-08-26T03:27:52.419Z,98828.13
2023-08-26T03:30:19.554Z,98826.94
2023-08-26T03:32:46.635Z,98838.84
2023-08-26T03:35:13.592Z,98837.69
2023-08-26T03:37:40.535Z,98832.69
2023-08-26T03:40:08.025Z,98826.97
2023-08-26T03:42:35.010Z,98820.84
2023-08-26T03:45:01.901Z,98819.31
2023-08-26T03:47:28.767Z,98817.78
2023-08-26T03:49:55.723Z,98817.03
2023-08-26T03:52:22.646Z,98817.78
2023-08-26T03:54:51.105Z,98823.16
2023-08-26T03:57:18.276Z,98817.81
2023-08-26T03:59:45.252Z,98820.88
2023-08-26T04:02:12.227Z,98832.34
2023-08-26T04:04:39.082Z,98828.16
2023-08-26T04:07:06.035Z,98831.19
2023-08-26T04:09:32.936Z,98834.25
2023-08-26T04:11:59.908Z,98836.53
2023-08-26T04:14:26.787Z,98836.19
2023-08-26T04:16:53.737Z,98829.28
2023-08-26T04:19:21.264Z,98840.38
2023-08-26T04:21:48.264Z,98840.75
2023-08-26T04:24:15.219Z,98841.91
2023-08-26T04:26:42.159Z,98849.94
2023-08-26T04:29:09.133Z,98851.09
2023-08-26T04:31:36.340Z,98842.66
2023-08-26T04:34:03.410Z,98851.84
2023-08-26T04:36:30.510Z,98852.25
2023-08-26T04:38:57.853Z,98849.16
2023-08-26T04:41:24.792Z,98857.19
2023-08-26T04:43:54.202Z,98860.63
2023-08-26T04:46:22.630Z,98861.03
2023-08-26T04:48:51.774Z,98867.50
2023-08-26T04:51:18.803Z,98857.56
2023-08-26T04:53:45.746Z,98861.00
2023-08-26T04:56:12.761Z,98862.13
2023-08-26T04:58:39.808Z,98853.72
2023-08-26T05:01:07.012Z,98861.75
2023-08-26T05:03:34.801Z,98871.72
2023-08-26T05:06:01.883Z,98866.72
2023-08-26T05:08:28.816Z,98872.06
2023-08-26T05:10:55.794Z,98882.81
2023-08-26T05:13:22.698Z,98873.97
2023-08-26T05:15:49.748Z,98869.75
2023-08-26T05:18:17.607Z,98876.25
2023-08-26T05:20:46.210Z,98888.50
2023-08-26T05:23:14.040Z,98888.06
2023-08-26T05:25:41.767Z,98891.47
2023-08-26T05:28:08.738Z,98889.50
2023-08-26T05:30:37.042Z,98900.22
2023-08-26T05:33:04.098Z,98896.75
2023-08-26T05:35:31.049Z,98893.66
2023-08-26T05:37:58.737Z,98899.03
2023-08-26T05:40:27.881Z,98884.41
2023-08-26T05:42:56.958Z,98895.47
2023-08-26T05:45:25.794Z,98896.19
2023-08-26T05:47:56.150Z,98898.47
2023-08-26T05:50:23.735Z,98901.13
2023-08-26T05:52:50.713Z,98894.53
2023-08-26T05:55:17.861Z,98892.19
2023-08-26T05:57:44.791Z,98889.91
2023-08-26T06:00:12.786Z,98883.75
2023-08-26T06:02:48.219Z,98891.75
2023-08-26T06:05:17.527Z,98880.56
2023-08-26T06:07:46.195Z,98878.59
2023-08-26T06:10:13.155Z,98882.06
2023-08-26T06:12:40.294Z,98880.50
2023-08-26T06:15:10.991Z,98890.84
2023-08-26T06:17:38.164Z,98903.44
2023-08-26T06:20:05.656Z,98901.50
2023-08-26T06:22:32.704Z,98896.09
2023-08-26T06:25:00.609Z,98894.88
2023-08-26T06:27:27.578Z,98894.78
2023-08-26T06:29:55.937Z,98891.53
2023-08-26T06:32:23.125Z,98897.13
2023-08-26T06:34:50.948Z,98899.22
2023-08-26T06:37:18.122Z,98905.00
2023-08-26T06:39:45.121Z,98899.06
2023-08-26T06:42:11.969Z,98900.88
2023-08-26T06:44:51.472Z,98898.44
2023-08-26T06:47:18.379Z,98897.22
2023-08-26T06:49:45.391Z,98903.69
2023-08-26T06:52:12.262Z,98901.69
2023-08-26T06:54:40.145Z,98910.06
2023-08-26T06:57:07.581Z,98906.09
2023-08-26T06:59:34.563Z,98903.28
2023-08-26T07:02:01.399Z,98902.63
2023-08-26T07:04:28.393Z,98904.31
2023-08-26T07:06:55.307Z,98895.59
2023-08-26T07:09:22.306Z,98907.69
2023-08-26T07:11:49.156Z,98909.69
2023-08-26T07:14:16.179Z,98916.25
2023-08-26T07:16:43.043Z,98915.44
2023-08-26T07:19:10.091Z,98922.22
2023-08-26T07:21:36.956Z,98929.41
2023-08-26T07:24:04.092Z,98939.66
2023-08-26T07:26:30.973Z,98940.22
2023-08-26T07:28:57.830Z,98941.28
2023-08-26T07:31:24.826Z,98933.13
2023-08-26T07:33:51.976Z,98942.50
2023-08-26T07:36:18.931Z,98944.72
2023-08-26T07:38:45.876Z,98949.00
2023-08-26T07:41:12.699Z,98939.63
2023-08-26T07:43:39.717Z,98948.91
2023-08-26T07:48:38.117Z,98952.22
2023-08-26T07:51:05.504Z,98941.00
2023-08-26T07:53:32.418Z,98945.72
2023-08-26T07:55:59.297Z,98949.69
2023-08-26T07:58:26.267Z,98965.72
2023-08-26T08:00:53.178Z,98958.56
2023-08-26T08:03:20.249Z,98966.81
2023-08-26T08:05:47.194Z,98971.50
2023-08-26T08:08:14.126Z,98986.75
2023-08-26T08:10:42.389Z,98993.19
2023-08-26T08:13:11.359Z,98990.28
2023-08-26T08:15:38.360Z,98995.06
2023-08-26T08:18:05.528Z,98998.56
2023-08-26T08:20:32.542Z,98991.69
2023-08-26T08:22:59.805Z,98994.88
2023-08-26T08:25:26.914Z,99002.59
2023-08-26T08:27:54.291Z,99003.09
2023-08-26T08:30:21.383Z,98995.81
2023-08-26T08:32:48.343Z,99001.31
2023-08-26T08:35:15.273Z,98999.44
2023-08-26T08:37:42.154Z,99000.69
2023-08-26T08:40:09.384Z,99000.31
2023-08-26T08:42:40.932Z,99011.16
2023-08-26T08:45:09.327Z,99006.97
2023-08-26T08:47:36.896Z,99014.72
2023-08-26T08:50:04.088Z,99019.03
2023-08-26T08:52:32.855Z,99029.03
2023-08-26T08:54:59.914Z,99037.22
2023-08-26T08:57:33.378Z,99052.38
2023-08-26T09:00:01.958Z,99060.91
2023-08-26T09:02:29.323Z,99063.91
2023-08-26T09:04:56.996Z,99070.78
2023-08-26T09:07:27.411Z,99074.59
2023-08-26T09:10:01.975Z,99065.69
2023-08-26T09:12:33.172Z,99071.34
2023-08-26T09:15:00.088Z,99073.97
2023-08-26T09:17:27.009Z,99064.25
2023-08-26T09:19:59.706Z,99060.22
2023-08-26T09:22:31.691Z,99080.31
2023-08-26T09:25:03.480Z,99075.88
2023-08-26T09:27:34.669Z,99076.97
2023-08-26T09:30:02.695Z,99075.81
2023-08-26T09:32:37.499Z,99073.13
2023-08-26T09:35:15.005Z,99069.25
2023-08-26T09:37:44.708Z,99081.22
2023-08-26T09:40:16.189Z,99078.56
2023-08-26T09:42:43.849Z,99072.06
2023-08-26T09:45:12.247Z,99068.06
2023-08-26T09:47:39.249Z,99063.09
2023-08-26T09:50:09.047Z,99060.97
2023-08-26T09:52:46.480Z,99053.34
2023-08-26T09:55:13.744Z,99042.38
2023-08-26T09:57:41.551Z,99028.63
2023-08-26T10:00:09.324Z,99021.16
2023-08-26T10:02:50.619Z,99004.19
2023-08-26T10:05:22.544Z,99010.63
2023-08-26T10:07:53.634Z,99014.31
2023-08-26T10:10:47.795Z,99005.78
2023-08-26T10:13:20.398Z,99023.53
2023-08-26T10:15:51.562Z,99030.16
2023-08-26T10:18:46.770Z,99015.28
2023-08-26T10:21:15.101Z,99007.16
2023-08-26T10:23:43.239Z,99011.28
2023-08-26T10:26:12.728Z,98996.03
2023-08-26T10:28:41.184Z,98988.41
2023-08-26T10:31:09.309Z,98974.28
2023-08-26T10:34:00.717Z,98970.69
2023-08-26T10:36:28.284Z,98969.59
2023-08-26T10:38:56.695Z,98975.25
2023-08-26T10:41:23.862Z,98980.22
2023-08-26T10:43:59.033Z,98983.19
2023-08-26T10:46:39.134Z,98985.28
2023-08-26T10:49:06.179Z,98989.59
2023-08-26T10:51:36.714Z,98989.19
2023-08-26T10:54:06.482Z,98996.25
2023-08-26T10:56:33.698Z,99001.78
2023-08-26T10:59:05.866Z,99000.03
2023-08-26T11:01:36.586Z,99007.31
2023-08-26T11:04:06.977Z,99013.56
2023-08-26T11:06:38.260Z,99003.72
2023-08-26T11:09:05.946Z,98997.16
2023-08-26T11:11:33.858Z,98993.34
2023-08-26T11:14:00.815Z,98992.75
2023-08-26T11:16:27.890Z,99004.69
2023-08-26T11:18:55.584Z,99014.03
2023-08-26T11:21:23.874Z,99008.56
2023-08-26T11:23:52.807Z,99004.34
2023-08-26T11:26:22.777Z,99004.69
2023-08-26T11:28:50.213Z,99005.50
2023-08-26T11:31:17.967Z,99005.25
2023-08-26T11:33:46.968Z,98996.88
2023-08-26T11:36:14.021Z,98993.66
2023-08-26T11:38:41.077Z,98991.53
2023-08-26T11:41:08.934Z,98996.09
2023-08-26T11:43:36.777Z,98983.16
2023-08-26T11:46:05.653Z,98994.69
2023-08-26T11:48:36.567Z,98984.59
2023-08-26T11:51:03.911Z,98980.53
2023-08-26T11:53:31.151Z,98979.34
2023-08-26T11:55:58.359Z,98980.53
2023-08-26T11:58:27.738Z,98974.19
2023-08-26T12:00:56.101Z,98978.41
2023-08-26T12:03:23.274Z,98967.56
2023-08-26T12:05:51.508Z,98971.19
2023-08-26T12:08:18.943Z,98976.31
2023-08-26T12:10:53.893Z,98965.59
2023-08-26T12:13:21.589Z,98967.44
2023-08-26T12:15:50.565Z,98972.88
2023-08-26T12:18:20.822Z,98961.28
2023-08-26T12:20:48.383Z,98956.63
2023-08-26T12:23:18.958Z,98961.19
2023-08-26T12:25:46.089Z,98956.53
2023-08-26T12:28:16.152Z,98959.56
2023-08-26T12:30:45.547Z,98956.31
2023-08-26T12:33:23.186Z,98959.97
2023-08-26T12:35:52.131Z,98964.81
2023-08-26T12:38:19.117Z,98950.63
2023-08-26T12:40:46.126Z,98942.16
2023-08-26T12:43:13.168Z,98936.91
2023-08-26T12:45:40.145Z,98938.75
2023-08-26T12:48:07.565Z,98932.69
2023-08-26T12:50:34.526Z,98938.25
2023-08-26T12:53:01.496Z,98930.03
2023-08-26T12:55:28.529Z,98929.94
2023-08-26T12:57:56.036Z,98922.91
2023-08-26T13:00:23.268Z,98919.97
2023-08-26T13:02:50.374Z,98929.16
2023-08-26T13:05:17.422Z,98919.63
2023-08-26T13:07:44.460Z,98914.44
2023-08-26T13:10:11.504Z,98908.91
2023-08-26T13:12:38.472Z,98906.09
2023-08-26T13:15:06.104Z,98909.03
2023-08-26T13:17:33.084Z,98907.25
2023-08-26T13:20:00.122Z,98905.75
2023-08-26T13:22:28.179Z,98913.78
2023-08-26T13:24:55.187Z,98905.53
2023-08-26T13:27:22.134Z,98905.22
2023-08-26T13:29:49.195Z,98902.50
2023-08-26T13:32:16.117Z,98900.66
2023-08-26T13:34:43.138Z,98901.31
2023-08-26T13:37:10.094Z,98900.56
2023-08-26T13:39:37.040Z,98897.53
2023-08-26T13:42:04.218Z,98894.81
2023-08-26T13:44:31.197Z,98892.13
2023-08-26T13:46:58.178Z,98895.56
2023-08-26T13:49:25.442Z,98882.78
2023-08-26T13:51:52.540Z,98883.97
2023-08-26T13:54:19.558Z,98879.44
2023-08-26T13:56:46.780Z,98875.19
2023-08-26T13:59:13.679Z,98874.00
2023-08-26T14:01:40.829Z,98872.91
2023-08-26T14:04:07.791Z,98864.44
2023-08-26T14:06:34.748Z,98855.78
2023-08-26T14:09:01.727Z,98855.03
2023-08-26T14:11:28.641Z,98854.19
2023-08-26T14:13:55.668Z,98854.47
2023-08-26T14:16:23.631Z,98844.09
2023-08-26T14:18:51.021Z,98841.16
2023-08-26T14:21:18.002Z,98838.00
2023-08-26T14:23:46.925Z,98841.47
2023-08-26T14:26:15.714Z,98835.16
2023-08-26T14:28:42.730Z,98842.88
2023-08-26T14:31:09.700Z,98840.16
2023-08-26T14:33:37.285Z,98839.84
2023-08-26T14:36:04.838Z,98830.19
2023-08-26T14:38:31.860Z,98826.06
2023-08-26T14:41:00.473Z,98822.19
2023-08-26T14:43:27.509Z,98819.13
2023-08-26T14:45:54.521Z,98807.75
2023-08-26T14:48:21.615Z,98802.22
2023-08-26T14:50:54.020Z,98797.09
2023-08-26T14:53:21.087Z,98793.97
2023-08-26T14:55:48.012Z,98791.56
2023-08-26T14:58:15.612Z,98784.97
2023-08-26T15:00:43.491Z,98788.75
2023-08-26T15:03:10.696Z,98793.41
2023-08-26T15:05:37.726Z,98792.88
2023-08-26T15:08:04.953Z,98792.88
2023-08-26T15:10:32.630Z,98782.72
2023-08-26T15:12:59.641Z,98776.97
2023-08-26T15:15:26.592Z,98774.38
2023-08-26T15:17:53.712Z,98774.81
2023-08-26T15:20:20.698Z,98773.31
2023-08-26T15:22:47.784Z,98761.38
2023-08-26T15:25:14.782Z,98764.09
2023-08-26T15:27:41.756Z,98773.41
2023-08-26T15:30:09.459Z,98766.78
2023-08-26T15:32:36.513Z,98759.75
2023-08-26T15:35:03.672Z,98767.13
2023-08-26T15:37:30.615Z,98768.00
2023-08-26T15:39:57.550Z,98757.16
2023-08-26T15:42:24.572Z,98761.81
2023-08-26T15:44:51.536Z,98746.66
2023-08-26T15:47:18.504Z,98739.81
2023-08-26T15:49:45.497Z,98740.91
2023-08-26T15:52:12.464Z,98734.16
2023-08-26T15:54:39.423Z,98734.28
2023-08-26T15:57:06.396Z,98722.06
2023-08-26T15:59:33.372Z,98718.59
2023-08-26T16:02:00.752Z,98715.88
2023-08-26T16:04:28.588Z,98706.25
2023-08-26T16:06:55.564Z,98706.25
2023-08-26T16:09:22.506Z,98699.00
2023-08-26T16:11:49.499Z,98697.03
2023-08-26T16:14:16.409Z,98685.88
2023-08-26T16:16:43.422Z,98681.31
2023-08-26T16:19:10.394Z,98668.53
2023-08-26T16:21:37.466Z,98666.69
2023-08-26T16:24:04.658Z,98662.66
2023-08-26T16:26:32.191Z,98666.47
2023-08-26T16:28:59.184Z,98664.06
2023-08-26T16:31:26.237Z,98667.13
2023-08-26T16:33:53.827Z,98671.78
2023-08-26T16:36:20.803Z,98673.50
2023-08-26T16:38:47.806Z,98672.97
2023-08-26T16:41:14.996Z,98678.88
2023-08-26T16:43:43.724Z,98675.75
2023-08-26T16:46:10.749Z,98672.81
2023-08-26T16:48:37.702Z,98691.25
2023-08-26T16:51:04.819Z,98697.22
2023-08-26T16:53:31.768Z,98695.56
2023-08-26T16:55:58.733Z,98685.06
2023-08-26T16:58:25.684Z,98686.78
2023-08-26T17:00:52.741Z,98672.50
2023-08-26T17:03:19.792Z,98663.00
2023-08-26T17:05:50.680Z,98673.59
2023-08-26T17:08:17.635Z,98672.94
2023-08-26T17:10:44.594Z,98663.41
2023-08-26T17:13:11.726Z,98658.97
2023-08-26T17:15:39.395Z,98666.09
2023-08-26T17:18:06.470Z,98663.50
2023-08-26T17:20:33.507Z,98661.66
2023-08-26T17:23:00.825Z,98659.56
2023-08-26T17:25:27.982Z,98652.63
2023-08-26T17:27:54.970Z,98650.13
2023-08-26T17:30:22.117Z,98650.56
2023-08-26T17:32:49.197Z,98655.41
2023-08-26T17:35:16.428Z,98656.19
2023-08-26T17:37:43.384Z,98657.78
2023-08-26T17:40:10.614Z,98649.97
2023-08-26T17:42:37.612Z,98644.56
2023-08-26T17:48:20.891Z,98625.28
2023-08-26T17:50:52.855Z,98627.69
2023-08-26T17:53:20.390Z,98623.13
2023-08-26T17:55:47.441Z,98632.06
2023-08-26T17:58:14.419Z,98624.16
2023-08-26T18:00:44.385Z,98626.19
2023-08-26T18:03:14.164Z,98620.09
2023-08-26T18:05:42.405Z,98618.47
2023-08-26T18:08:09.990Z,98610.28
2023-08-26T18:10:37.549Z,98606.94
2023-08-26T18:13:05.707Z,98616.91
2023-08-26T18:15:32.765Z,98595.50
2023-08-26T18:17:59.766Z,98595.69
2023-08-26T18:20:27.240Z,98596.34
2023-08-26T18:22:54.334Z,98595.28
2023-08-26T18:25:21.385Z,98583.38
2023-08-26T18:27:48.292Z,98582.09
2023-08-26T18:30:15.518Z,98583.94
2023-08-26T18:32:42.467Z,98573.47
2023-08-26T18:35:09.610Z,98565.38
2023-08-26T18:37:36.878Z,98564.28
2023-08-26T18:40:05.027Z,98550.78
2023-08-26T18:42:32.422Z,98534.25
2023-08-26T18:44:59.416Z,98546.22
2023-08-26T18:47:27.220Z,98539.22
2023-08-26T18:49:55.621Z,98541.69
2023-08-26T18:52:22.910Z,98559.59
2023-08-26T18:54:50.360Z,98577.06
2023-08-26T18:57:17.433Z,98595.28
2023-08-26T18:59:45.605Z,98616.13
2023-08-26T19:02:13.040Z,98623.03
2023-08-26T19:04:40.141Z,98624.81
2023-08-26T19:07:07.377Z,98626.22
2023-08-26T19:09:34.759Z,98629.84
2023-08-26T19:12:01.968Z,98658.00
2023-08-26T19:14:29.289Z,98662.28
2023-08-26T19:16:57.737Z,98659.09
2023-08-26T19:19:25.159Z,98666.66
2023-08-26T19:21:52.536Z,98653.84
2023-08-26T19:24:19.697Z,98657.75
2023-08-26T19:26:47.706Z,98672.94
2023-08-26T19:29:15.037Z,98695.09
2023-08-26T19:31:41.989Z,98716.03
2023-08-26T19:34:09.090Z,98718.88
2023-08-26T19:36:36.330Z,98746.44
2023-08-26T19:39:03.470Z,98796.50
2023-08-26T19:41:41.341Z,98843.16
2023-08-26T19:44:08.423Z,98838.94
2023-08-26T19:46:35.895Z,98835.09
2023-08-26T19:49:03.049Z,98820.16
2023-08-26T19:51:30.237Z,98809.03
2023-08-26T19:53:57.446Z,98828.81
2023-08-26T19:56:25.288Z,98843.75
2023-08-26T19:58:52.762Z,98835.44
2023-08-26T20:01:20.186Z,98824.25
2023-08-26T20:03:57.034Z,98830.78
2023-08-26T20:06:24.656Z,98822.03
2023-08-26T20:08:51.669Z,98807.72
2023-08-26T20:11:18.925Z,98821.09
2023-08-26T20:13:46.041Z,98813.97
2023-08-26T20:16:13.787Z,98831.81
2023-08-26T20:18:41.432Z,98839.97
2023-08-26T20:21:08.891Z,98845.03
2023-08-26T20:23:36.111Z,98843.91
2023-08-26T20:26:05.209Z,98851.28
2023-08-26T20:28:32.480Z,98859.47
2023-08-26T20:31:02.263Z,98863.13
2023-08-26T20:33:30.469Z,98893.22
2023-08-26T20:36:01.223Z,98904.91
2023-08-26T20:38:28.749Z,98910.72
2023-08-26T20:41:05.900Z,98910.75
2023-08-26T20:43:33.557Z,98908.47
2023-08-26T20:46:01.301Z,98902.81
2023-08-26T20:48:28.729Z,98901.28
2023-08-26T20:50:57.052Z,98880.66
2023-08-26T20:53:25.063Z,98882.16
2023-08-26T20:55:55.904Z,98896.38
2023-08-26T20:58:24.407Z,98918.63
2023-08-26T21:00:54.323Z,98916.44
2023-08-26T21:03:21.398Z,98908.41
2023-08-26T21:05:49.594Z,98900.78
2023-08-26T21:08:17.703Z,98904.22
2023-08-26T21:10:44.985Z,98900.03
2023-08-26T21:13:13.975Z,98898.88
2023-08-26T21:15:44.091Z,98885.50
2023-08-26T21:18:12.742Z,98891.63
2023-08-26T21:20:39.733Z,98896.22
2023-08-26T21:23:06.861Z,98902.34
2023-08-26T21:25:34.138Z,98893.94
2023-08-26T21:28:02.435Z,98905.00
2023-08-26T21:30:29.845Z,98897.75
2023-08-26T21:32:59.227Z,98901.56
2023-08-26T21:35:26.998Z,98883.59
2023-08-26T21:37:54.283Z,98905.00
2023-08-26T21:40:21.511Z,98888.56
2023-08-26T21:42:48.826Z,98887.81
2023-08-26T21:45:16.088Z,98887.00
2023-08-26T21:47:43.160Z,98885.09
2023-08-26T21:50:10.193Z,98888.94
2023-08-26T21:52:37.409Z,98884.38
2023-08-26T21:55:04.837Z,98885.91
2023-08-26T21:57:31.790Z,98881.69
2023-08-26T21:59:59.000Z,98869.78
2023-08-26T22:02:25.942Z,98864.03
2023-08-26T22:04:52.932Z,98866.34
2023-08-26T22:07:19.977Z,98862.91
2023-08-26T22:09:47.046Z,98873.97
2023-08-26T22:12:14.044Z,98875.13
2023-08-26T22:14:40.998Z,98878.97
2023-08-26T22:17:08.250Z,98880.47
2023-08-26T22:19:35.126Z,98877.41
2023-08-26T22:22:02.104Z,98874.72
2023-08-26T22:24:29.031Z,98866.31
2023-08-26T22:26:56.031Z,98856.34
2023-08-26T22:29:23.042Z,98850.59
2023-08-26T22:31:50.122Z,98847.88
2023-08-26T22:34:17.177Z,98857.84
2023-08-26T22:36:44.141Z,98863.19
2023-08-26T22:39:19.489Z,98867.78
2023-08-26T22:41:47.815Z,98852.09
2023-08-26T22:44:14.769Z,98843.31
2023-08-26T22:46:41.900Z,98843.69
2023-08-26T22:49:08.894Z,98819.22
2023-08-26T22:51:35.884Z,98830.66
2023-08-26T22:54:02.822Z,98827.22
2023-08-26T22:56:29.785Z,98826.44
2023-08-26T22:58:56.771Z,98844.00
2023-08-26T23:01:23.868Z,98845.56
2023-08-26T23:03:51.006Z,98835.22
2023-08-26T23:06:17.978Z,98844.38
2023-08-26T23:08:44.985Z,98830.25
2023-08-26T23:11:11.995Z,98852.38
2023-08-26T23:13:39.036Z,98842.78
2023-08-26T23:16:06.187Z,98843.53
2023-08-26T23:18:33.141Z,98840.09
2023-08-26T23:21:00.179Z,98838.53
2023-08-26T23:23:27.168Z,98836.66
2023-08-26T23:25:54.276Z,98839.66
2023-08-26T23:28:21.299Z,98840.41
2023-08-26T23:30:48.269Z,98838.50
2023-08-26T23:33:15.240Z,98822.44
2023-08-26T23:35:42.273Z,98826.28
2023-08-26T23:38:09.271Z,98829.34
2023-08-26T23:40:36.252Z,98830.06
2023-08-26T23:43:03.275Z,98833.91
2023-08-26T23:45:30.297Z,98836.19
2023-08-26T23:47:57.265Z,98830.06
2023-08-26T23:50:24.271Z,98823.22
2023-08-26T23:52:51.387Z,98818.22
2023-08-26T23:55:18.427Z,98815.16
2023-08-26T23:57:45.523Z,98815.53
